Terminal Aerodrome Forecast
Issued by NWS

Home | Current Version | Previous Version | Text Only | Print | Product List | Glossary On
Versions: 1 2 3 4 5 6 7 8 9 10 11 12 13 14 15 16 17 18 19
000
FTAK31 PAJN 260911 AAC
TAFAKT
TAF AMD
PAKT 260911Z 2609/2706 00000KT 5SM BR VCSH FEW006 SCT014 OVC025
      TEMPO 2609/2611 2SM -RA BR BKN006 BKN014 OVC020
     FM261100 30004KT P6SM -SHRA FEW010 BKN025 OVC040
     FM261700 34007KT P6SM VCSH SCT025 OVC050
     FM270300 33007KT P6SM BKN025 OVC050
      AMD LTD TO CLD VIS AND WIND TIL 261500=

USA.gov is the U.S. government's official web portal to all federal, state and local government web resources and services.